^^
Saratoga-Weather Station Historical Data
Daily Summary for March 28, 2021 Units:  Metric    English   Both
Daily Weekly Monthly Yearly Custom
  High: Low: Average:
Temperature: 5.6 °C 1.9 °C 3.2 °C
Dew Point: 1.5 °C -0.2 °C 0.8 °C
Humidity: 91% 75% 84%
Wind Speed: 16.3km/h 0km/h 3.1km/h
Wind Gust: 24.1km/h - -
Wind- - East
Pressure: 1036.2 hPa 1034.2 hPa -
Precipitation: 0.0 mm    
Historical Graphs
 
 
Tabular Data for March 28, 2021
Time Temperature Dew Point Pressure Wind Wind Speed Wind Gust Humidity Rainfall Rate (Hourly) solar
00:00 3.5 °C 1.2 °C 1036.2 hPa Calm   1.6 km/h 85% 0.0 mm 0 W/m2
00:05 3.3 °C 1 °C 1036.2 hPa SE 1.4 km/h 3.2 km/h 85% 0.0 mm 0 W/m2
00:10 3.3 °C 1.2 °C 1036.2 hPa Calm   1.6 km/h 86% 0.0 mm 0 W/m2
00:15 3.3 °C 1.3 °C 1036.2 hPa NE 1.4 km/h 1.6 km/h 87% 0.0 mm 0 W/m2
00:20 3.3 °C 1.3 °C 1036.2 hPa Calm   1.6 km/h 87% 0.0 mm 0 W/m2
00:25 3.3 °C 1.3 °C 1035.9 hPa North 4.7 km/h 4.8 km/h 87% 0.0 mm 0 W/m2
00:30 3.4 °C 1.4 °C 1035.9 hPa East 4.7 km/h 9.7 km/h 87% 0.0 mm 0 W/m2
00:35 3.5 °C 1.4 °C 1035.9 hPa Calm   3.2 km/h 86% 0.0 mm 0 W/m2
00:40 3.4 °C 1.3 °C 1035.9 hPa ENE 4.7 km/h 9.7 km/h 86% 0.0 mm 0 W/m2
00:45 3.4 °C 1.3 °C 1035.9 hPa Calm   1.6 km/h 86% 0.0 mm 0 W/m2
00:50 3.3 °C 1.2 °C 1035.9 hPa Calm     86% 0.0 mm 0 W/m2
00:55 3.1 °C 1 °C 1035.9 hPa Calm   6.4 km/h 86% 0.0 mm 0 W/m2
01:01 2.9 °C 1 °C 1035.9 hPa Calm   1.6 km/h 87% 0.0 mm 0 W/m2
01:06 2.9 °C 1.1 °C 1035.9 hPa Calm   6.4 km/h 88% 0.0 mm 0 W/m2
01:11 2.8 °C 0.9 °C 1035.9 hPa SW 1.4 km/h 3.2 km/h 87% 0.0 mm 0 W/m2
01:16 2.7 °C 0.8 °C 1035.9 hPa SW 1.4 km/h 1.6 km/h 87% 0.0 mm 0 W/m2
01:21 2.5 °C 0.6 °C 1035.9 hPa Calm   3.2 km/h 87% 0.0 mm 0 W/m2
01:26 2.3 °C 0.4 °C 1035.9 hPa Calm     87% 0.0 mm 0 W/m2
01:31 2.2 °C 0.4 °C 1035.9 hPa Calm     88% 0.0 mm 0 W/m2
01:36 2.1 °C 0.3 °C 1035.9 hPa Calm   3.2 km/h 88% 0.0 mm 0 W/m2
01:41 2 °C 0.4 °C 1035.9 hPa Calm   3.2 km/h 89% 0.0 mm 0 W/m2
01:46 1.9 °C 0.3 °C 1035.9 hPa SW 3.2 km/h 3.2 km/h 89% 0.0 mm 0 W/m2
01:51 1.9 °C 0.4 °C 1035.9 hPa Calm   4.8 km/h 90% 0.0 mm 0 W/m2
01:56 2.2 °C 0.9 °C 1035.9 hPa WSW 1.4 km/h 3.2 km/h 91% 0.0 mm 0 W/m2
02:01 2.3 °C 1 °C 1035.9 hPa Calm     91% 0.0 mm 0 W/m2
02:06 2.6 °C 1.3 °C 1035.9 hPa Calm   3.2 km/h 91% 0.0 mm 0 W/m2
02:11 2.8 °C 1.3 °C 1035.9 hPa SE 3.2 km/h 3.2 km/h 90% 0.0 mm 0 W/m2
02:16 2.9 °C 1.3 °C 1035.9 hPa East 13 km/h 14.5 km/h 89% 0.0 mm 0 W/m2
02:31 3.2 °C 1.2 °C 1035.6 hPa ESE 3.2 km/h 9.7 km/h 87% 0.0 mm 0 W/m2
02:41 3.3 °C 1.2 °C 1035.6 hPa East 3.2 km/h 6.4 km/h 86% 0.0 mm 0 W/m2
02:46 3.2 °C 1.1 °C 1035.6 hPa East 1.4 km/h 4.8 km/h 86% 0.0 mm 0 W/m2
02:51 3.1 °C 1 °C 1035.2 hPa ESE 4.7 km/h 4.8 km/h 86% 0.0 mm 0 W/m2
02:56 3.1 °C 1 °C 1035.2 hPa ESE 1.4 km/h 3.2 km/h 86% 0.0 mm 0 W/m2
03:01 3.1 °C 1 °C 1035.2 hPa Calm   4.8 km/h 86% 0.0 mm 0 W/m2
03:06 3.1 °C 1.1 °C 1035.2 hPa East 3.2 km/h 6.4 km/h 87% 0.0 mm 0 W/m2
03:16 3.1 °C 1.1 °C 1035.2 hPa East 4.7 km/h 4.8 km/h 87% 0.0 mm 0 W/m2
03:21 3.1 °C 1.1 °C 1035.2 hPa SE 1.4 km/h 4.8 km/h 87% 0.0 mm 0 W/m2
03:26 3 °C 1 °C 1035.2 hPa East 3.2 km/h 6.4 km/h 87% 0.0 mm 0 W/m2
03:31 3.1 °C 1.1 °C 1035.2 hPa East 3.2 km/h 4.8 km/h 87% 0.0 mm 0 W/m2
03:36 3 °C 1 °C 1035.2 hPa ESE 3.2 km/h 4.8 km/h 87% 0.0 mm 0 W/m2
03:41 2.9 °C 1 °C 1035.2 hPa Calm   1.6 km/h 87% 0.0 mm 0 W/m2
03:46 2.9 °C 1 °C 1034.9 hPa East 3.2 km/h 4.8 km/h 87% 0.0 mm 0 W/m2
03:51 2.9 °C 1 °C 1034.9 hPa ESE 3.2 km/h 6.4 km/h 87% 0.0 mm 0 W/m2
03:56 2.9 °C 1.1 °C 1034.9 hPa ESE 4.7 km/h 4.8 km/h 88% 0.0 mm 0 W/m2
04:01 3 °C 1.2 °C 1034.9 hPa NE 3.2 km/h 4.8 km/h 88% 0.0 mm 0 W/m2
04:06 3.1 °C 1.1 °C 1034.9 hPa ESE 3.2 km/h 8 km/h 87% 0.0 mm 0 W/m2
04:11 3.2 °C 1.2 °C 1034.9 hPa Calm   9.7 km/h 87% 0.0 mm 0 W/m2
04:16 3.3 °C 1.2 °C 1034.9 hPa East 4.7 km/h 6.4 km/h 86% 0.0 mm 0 W/m2
04:21 3.3 °C 1 °C 1034.9 hPa ESE 3.2 km/h 8 km/h 85% 0.0 mm 0 W/m2
04:26 3.3 °C 1 °C 1034.5 hPa East 4.7 km/h 6.4 km/h 85% 0.0 mm 0 W/m2
04:31 3.4 °C 1.1 °C 1034.9 hPa ENE 3.2 km/h 8 km/h 85% 0.0 mm 0 W/m2
04:36 3.4 °C 1.1 °C 1034.9 hPa ESE 3.2 km/h 3.2 km/h 85% 0.0 mm 0 W/m2
04:41 3.3 °C 1 °C 1034.9 hPa ESE 1.4 km/h 3.2 km/h 85% 0.0 mm 0 W/m2
04:46 3.3 °C 1 °C 1034.9 hPa East 1.4 km/h 9.7 km/h 85% 0.0 mm 0 W/m2
04:51 3.3 °C 0.9 °C 1034.9 hPa ENE 6.4 km/h 12.9 km/h 84% 0.0 mm 0 W/m2
04:56 3.4 °C 1 °C 1034.9 hPa East 1.4 km/h 3.2 km/h 84% 0.0 mm 0 W/m2
05:01 3.4 °C 1 °C 1034.9 hPa Calm   3.2 km/h 84% 0.0 mm 0 W/m2
05:06 3.4 °C 1 °C 1034.9 hPa ENE 3.2 km/h 3.2 km/h 84% 0.0 mm 0 W/m2
05:11 3.4 °C 1 °C 1034.9 hPa ENE 3.2 km/h 6.4 km/h 84% 0.0 mm 0 W/m2
05:16 3.4 °C 1 °C 1034.9 hPa ESE 1.4 km/h 4.8 km/h 84% 0.0 mm 0 W/m2
05:21 3.4 °C 0.8 °C 1034.9 hPa East 3.2 km/h 11.3 km/h 83% 0.0 mm 0 W/m2
05:26 3.4 °C 0.8 °C 1034.9 hPa NE 3.2 km/h 3.2 km/h 83% 0.0 mm 0 W/m2
05:31 3.4 °C 0.8 °C 1034.9 hPa ESE 4.7 km/h 9.7 km/h 83% 0.0 mm 0 W/m2
05:36 3.4 °C 0.8 °C 1034.9 hPa ESE 3.2 km/h 9.7 km/h 83% 0.0 mm 0 W/m2
05:41 3.4 °C 0.8 °C 1034.9 hPa East 3.2 km/h 6.4 km/h 83% 0.0 mm 0 W/m2
05:46 3.4 °C 0.8 °C 1034.9 hPa ENE 6.4 km/h 6.4 km/h 83% 0.0 mm 0 W/m2
05:51 3.4 °C 0.6 °C 1034.9 hPa ENE 3.2 km/h 4.8 km/h 82% 0.0 mm 0 W/m2
05:56 3.4 °C 0.6 °C 1034.9 hPa ESE 1.4 km/h 3.2 km/h 82% 0.0 mm 0 W/m2
06:01 3.4 °C 0.6 °C 1034.9 hPa NE 3.2 km/h 9.7 km/h 82% 0.0 mm 0 W/m2
06:06 3.4 °C 0.6 °C 1034.9 hPa NE 3.2 km/h 6.4 km/h 82% 0.0 mm 0 W/m2
06:11 3.4 °C 0.6 °C 1034.9 hPa ESE 3.2 km/h 9.7 km/h 82% 0.0 mm 0 W/m2
06:16 3.4 °C 0.6 °C 1034.9 hPa ENE 1.4 km/h 4.8 km/h 82% 0.0 mm 0 W/m2
06:22 3.3 °C 0.5 °C 1034.9 hPa Calm   4.8 km/h 82% 0.0 mm 0 W/m2
06:27 3.3 °C 0.5 °C 1034.9 hPa NE 3.2 km/h 11.3 km/h 82% 0.0 mm 0 W/m2
06:32 3.2 °C 0.4 °C 1034.5 hPa Calm   6.4 km/h 82% 0.0 mm 0 W/m2
06:37 3.1 °C 0.3 °C 1034.5 hPa East 3.2 km/h 4.8 km/h 82% 0.0 mm 0 W/m2
06:42 3 °C 0.4 °C 1034.5 hPa ESE 1.4 km/h 3.2 km/h 83% 0.0 mm 0 W/m2
06:47 2.8 °C 0.2 °C 1034.5 hPa Calm   6.4 km/h 83% 0.0 mm 0 W/m2
06:52 2.7 °C 0.1 °C 1034.5 hPa ESE 4.7 km/h 4.8 km/h 83% 0.0 mm 0 W/m2
06:57 2.6 °C 0.2 °C 1034.5 hPa Calm   3.2 km/h 84% 0.0 mm 0 W/m2
07:02 2.6 °C 0.2 °C 1034.5 hPa ESE 1.4 km/h 3.2 km/h 84% 0.0 mm 0 W/m2
07:07 2.4 °C 0 °C 1034.5 hPa SSE 1.4 km/h 4.8 km/h 84% 0.0 mm 0 W/m2
07:12 2.3 °C 0 °C 1034.5 hPa East 3.2 km/h 3.2 km/h 85% 0.0 mm 0 W/m2
07:17 2.3 °C 0 °C 1034.5 hPa East 1.4 km/h 6.4 km/h 85% 0.0 mm 0 W/m2
07:22 2.2 °C -0.1 °C 1034.5 hPa Calm   1.6 km/h 85% 0.0 mm 5 W/m2
07:27 2.2 °C -0.1 °C 1034.5 hPa ESE 3.2 km/h 4.8 km/h 85% 0.0 mm 7 W/m2
07:32 2.1 °C -0.2 °C 1034.5 hPa ESE 1.4 km/h 3.2 km/h 85% 0.0 mm 9 W/m2
07:52 2.2 °C -0.1 °C 1034.5 hPa Calm   3.2 km/h 85% 0.0 mm 16 W/m2
07:57 2.2 °C -0.1 °C 1034.5 hPa Calm   3.2 km/h 85% 0.0 mm 18 W/m2
08:07 2.2 °C -0.1 °C 1034.5 hPa East 1.4 km/h 3.2 km/h 85% 0.0 mm 21 W/m2
08:12 2.2 °C -0.1 °C 1034.2 hPa ENE 3.2 km/h 3.2 km/h 85% 0.0 mm 26 W/m2
08:17 2.2 °C -0.1 °C 1034.2 hPa SE 1.4 km/h 1.6 km/h 85% 0.0 mm 25 W/m2
08:22 2.3 °C 0 °C 1034.2 hPa Calm   6.4 km/h 85% 0.0 mm 26 W/m2
08:27 2.4 °C 0.1 °C 1034.2 hPa NE 4.7 km/h 4.8 km/h 85% 0.0 mm 28 W/m2
08:32 2.5 °C 0.2 °C 1034.2 hPa SE 6.4 km/h 11.3 km/h 85% 0.0 mm 44 W/m2
08:37 2.7 °C 0.3 °C 1034.2 hPa East 4.7 km/h 12.9 km/h 84% 0.0 mm 37 W/m2
08:52 3.3 °C 0.5 °C 1034.2 hPa NE 1.4 km/h 9.7 km/h 82% 0.0 mm 162 W/m2
09:02 3.7 °C 0.7 °C 1034.2 hPa ENE 3.2 km/h 12.9 km/h 81% 0.0 mm 183 W/m2
09:07 3.8 °C 0.7 °C 1034.2 hPa ENE 1.4 km/h 20.9 km/h 80% 0.0 mm 204 W/m2
09:12 3.9 °C 0.8 °C 1034.2 hPa ENE 4.7 km/h 12.9 km/h 80% 0.0 mm 149 W/m2
09:17 4.1 °C 0.8 °C 1034.2 hPa ESE 4.7 km/h 4.8 km/h 79% 0.0 mm 107 W/m2
09:22 4.2 °C 0.9 °C 1034.2 hPa ENE 6.4 km/h 17.7 km/h 79% 0.0 mm 243 W/m2
09:27 4.3 °C 1 °C 1034.2 hPa NE 14.3 km/h 16.1 km/h 79% 0.0 mm 193 W/m2
09:32 4.4 °C 0.9 °C 1034.2 hPa ESE 16.3 km/h 22.5 km/h 78% 0.0 mm 269 W/m2
09:37 4.6 °C 1.1 °C 1034.2 hPa ENE 3.2 km/h 19.3 km/h 78% 0.0 mm 287 W/m2
09:42 4.7 °C 1.2 °C 1034.2 hPa NE 14.3 km/h 22.5 km/h 78% 0.0 mm 301 W/m2
09:47 4.8 °C 1.1 °C 1034.2 hPa ENE 6.4 km/h 19.3 km/h 77% 0.0 mm 309 W/m2
09:52 4.9 °C 1 °C 1034.2 hPa ENE 9.7 km/h 14.5 km/h 76% 0.0 mm 320 W/m2
09:57 5.1 °C 1.4 °C 1034.2 hPa ENE 3.2 km/h 19.3 km/h 77% 0.0 mm 332 W/m2
10:02 5.2 °C 1.3 °C 1034.2 hPa East 14.3 km/h 16.1 km/h 76% 0.0 mm 345 W/m2
10:07 5.3 °C 1.4 °C 1034.2 hPa ENE 4.7 km/h 14.5 km/h 76% 0.0 mm 353 W/m2
10:12 5.3 °C 1.2 °C 1034.2 hPa ENE 13 km/h 24.1 km/h 75% 0.0 mm 367 W/m2
10:17 5.4 °C 1.3 °C 1034.2 hPa ENE 6.4 km/h 8 km/h 75% 0.0 mm 378 W/m2
10:22 5.6 °C 1.5 °C 1034.2 hPa NE 9.7 km/h 24.1 km/h 75% 0.0 mm 388 W/m2
Juneau County Weather
Compliments of Weather Underground - 4 mb